createdAt,value
2022-08-17T00:04:34.097Z,100566.78
2022-08-17T00:09:47.762Z,100562.34
2022-08-17T00:14:54.808Z,100553.91
2022-08-17T00:25:20.457Z,100550.59
2022-08-17T00:30:29.630Z,100547.38
2022-08-17T00:35:48.999Z,100548.56
2022-08-17T00:41:04.618Z,100548.94
2022-08-17T00:46:22.030Z,100548.16
2022-08-17T00:51:44.426Z,100544.16
2022-08-17T00:56:58.402Z,100538.56
2022-08-17T01:05:25.622Z,100557.38
2022-08-17T01:10:58.797Z,100553.03
2022-08-17T01:16:09.233Z,100553.44
2022-08-17T01:21:24.911Z,100555.84
2022-08-17T01:26:30.286Z,100551.44
2022-08-17T01:31:38.779Z,100552.69
2022-08-17T01:36:44.679Z,100557.47
2022-08-17T01:41:53.405Z,100561.88
2022-08-17T01:46:59.731Z,100562.28
2022-08-17T01:52:11.589Z,100568.72
2022-08-17T01:57:18.212Z,100559.19
2022-08-17T02:02:30.335Z,100558.81
2022-08-17T02:07:59.534Z,100549.59
2022-08-17T02:13:04.555Z,100552.31
2022-08-17T02:18:09.142Z,100550.66
2022-08-17T02:23:17.678Z,100543.03
2022-08-17T02:28:21.582Z,100539.44
2022-08-17T02:33:41.982Z,100542.97
2022-08-17T02:39:12.065Z,100550.91
2022-08-17T02:44:39.743Z,100541.63
2022-08-17T02:49:54.078Z,100549.97
2022-08-17T02:55:02.361Z,100543.13
2022-08-17T03:00:35.840Z,100551.47
2022-08-17T03:05:49.040Z,100561.41
2022-08-17T03:11:02.606Z,100555.84
2022-08-17T03:16:08.526Z,100548.63
2022-08-17T03:21:14.126Z,100539.81
2022-08-17T03:26:32.261Z,100537.78
2022-08-17T03:31:36.905Z,100520.16
2022-08-17T03:36:49.272Z,100522.50
2022-08-17T03:41:53.414Z,100520.47
2022-08-17T03:47:16.768Z,100535.19
2022-08-17T03:52:39.244Z,100542.31
2022-08-17T03:57:57.911Z,100533.09
2022-08-17T04:03:27.667Z,100555.00
2022-08-17T04:08:43.092Z,100553.34
2022-08-17T04:13:49.052Z,100542.09
2022-08-17T04:18:54.893Z,100532.50
2022-08-17T04:24:11.071Z,100540.44
2022-08-17T04:29:26.867Z,100541.56
2022-08-17T04:34:56.701Z,100536.38
2022-08-17T04:40:29.587Z,100541.53
2022-08-17T04:45:57.027Z,100548.66
2022-08-17T04:51:03.911Z,100563.78
2022-08-17T05:01:29.207Z,100557.31
2022-08-17T05:06:46.737Z,100564.44
2022-08-17T05:17:11.738Z,100567.59
2022-08-17T05:22:21.647Z,100567.59
2022-08-17T05:27:35.302Z,100566.41
2022-08-17T05:32:57.680Z,100566.84
2022-08-17T05:38:01.210Z,100562.88
2022-08-17T05:43:44.723Z,100568.03
2022-08-17T05:48:57.078Z,100558.47
2022-08-17T05:54:45.536Z,100563.25
2022-08-17T06:00:33.309Z,100561.69
2022-08-17T06:11:53.464Z,100560.63
2022-08-17T06:17:06.310Z,100562.34
2022-08-17T06:22:18.145Z,100552.91
2022-08-17T06:27:48.036Z,100556.22
2022-08-17T06:33:08.105Z,100563.19
2022-08-17T06:38:37.374Z,100560.56
2022-08-17T06:50:24.155Z,100555.69
2022-08-17T07:08:51.195Z,100571.28
2022-08-17T07:26:21.472Z,100592.16
2022-08-17T07:31:34.107Z,100593.41
2022-08-17T07:36:47.362Z,100602.75
2022-08-17T07:42:09.779Z,100586.97
2022-08-17T07:47:39.097Z,100583.47
2022-08-17T07:52:51.638Z,100574.34
2022-08-17T07:58:08.155Z,100588.78
2022-08-17T08:03:36.850Z,100561.13
2022-08-17T08:09:01.905Z,100591.84
2022-08-17T08:14:36.577Z,100550.41
2022-08-17T08:19:49.181Z,100563.84
2022-08-17T08:25:22.564Z,100559.75
2022-08-17T08:30:33.590Z,100567.94
2022-08-17T08:36:04.374Z,100559.72
2022-08-17T08:42:11.523Z,100618.75
2022-08-17T08:48:12.766Z,100598.28
2022-08-17T08:53:52.866Z,100616.47
2022-08-17T09:05:44.282Z,100573.06
2022-08-17T09:11:12.338Z,100602.44
2022-08-17T09:16:37.634Z,100594.38
2022-08-17T09:22:04.351Z,100597.50
2022-08-17T09:27:24.385Z,100680.91
2022-08-17T09:32:54.188Z,100656.50
2022-08-17T09:38:46.806Z,100658.94
2022-08-17T09:44:23.060Z,100617.41
2022-08-17T09:49:58.384Z,100630.94
2022-08-17T09:55:05.034Z,100644.91
2022-08-17T10:00:33.809Z,100628.56
2022-08-17T10:06:10.649Z,100642.22
2022-08-17T10:12:06.369Z,100631.22
2022-08-17T10:17:31.655Z,100630.22
2022-08-17T10:23:13.939Z,100624.88
2022-08-17T10:28:33.851Z,100633.94
2022-08-17T10:34:41.558Z,100585.31
2022-08-17T10:40:02.988Z,100554.91
2022-08-17T10:45:31.037Z,100556.69
2022-08-17T10:56:29.396Z,100587.38
2022-08-17T11:01:48.408Z,100570.41
2022-08-17T11:07:44.048Z,100560.59
2022-08-17T11:13:45.331Z,100561.50
2022-08-17T11:19:24.165Z,100541.03
2022-08-17T11:24:39.741Z,100530.56
2022-08-17T11:30:13.048Z,100509.22
2022-08-17T11:35:41.870Z,100511.19
2022-08-17T11:41:17.087Z,100518.75
2022-08-17T11:47:19.414Z,100517.88
2022-08-17T11:52:46.961Z,100517.81
2022-08-17T11:58:03.439Z,100533.41
2022-08-17T12:03:55.374Z,100540.97
2022-08-17T12:09:35.213Z,100538.97
2022-08-17T12:20:45.293Z,100537.00
2022-08-17T12:26:10.293Z,100543.88
2022-08-17T12:31:35.099Z,100549.44
2022-08-17T12:36:50.995Z,100552.69
2022-08-17T12:42:10.124Z,100537.09
2022-08-17T12:47:32.296Z,100541.94
2022-08-17T12:52:49.117Z,100553.22
2022-08-17T12:58:38.841Z,100559.25
2022-08-17T13:04:03.078Z,100554.09
2022-08-17T13:14:49.715Z,100571.88
2022-08-17T13:19:54.315Z,100570.72
2022-08-17T13:25:09.499Z,100597.59
2022-08-17T13:36:33.266Z,100586.75
2022-08-17T13:41:41.365Z,100594.38
2022-08-17T13:47:21.044Z,100585.13
2022-08-17T13:52:52.235Z,100593.94
2022-08-17T13:58:06.559Z,100590.75
2022-08-17T14:03:19.343Z,100582.31
2022-08-17T14:08:22.549Z,100581.91
2022-08-17T14:13:40.354Z,100590.72
2022-08-17T14:18:57.044Z,100589.13
2022-08-17T14:24:00.704Z,100591.13
2022-08-17T14:29:02.967Z,100593.94
2022-08-17T14:34:11.077Z,100590.31
2022-08-17T14:39:22.296Z,100584.66
2022-08-17T14:44:30.951Z,100589.47
2022-08-17T14:49:34.457Z,100587.44
2022-08-17T14:54:40.197Z,100588.63
2022-08-17T14:59:58.625Z,100590.22
2022-08-17T15:10:32.489Z,100579.38
2022-08-17T15:15:38.559Z,100586.56
2022-08-17T15:20:54.188Z,100591.38
2022-08-17T15:26:07.136Z,100608.56
2022-08-17T15:31:18.944Z,100623.63
2022-08-17T15:36:45.486Z,100619.97
2022-08-17T15:42:03.208Z,100612.41
2022-08-17T15:47:09.583Z,100626.84
2022-08-17T15:52:32.151Z,100628.03
2022-08-17T15:57:40.329Z,100629.13
2022-08-17T16:03:47.144Z,100633.53
2022-08-17T16:08:21.472Z,100630.69
2022-08-17T16:13:32.479Z,100624.28
2022-08-17T16:24:29.319Z,100621.06
2022-08-17T16:29:34.950Z,100619.06
2022-08-17T16:34:47.845Z,100624.28
2022-08-17T16:39:57.074Z,100618.63
2022-08-17T16:45:30.919Z,100620.59
2022-08-17T16:56:03.334Z,100630.44
2022-08-17T17:01:05.836Z,100640.50
2022-08-17T17:06:29.923Z,100640.00
2022-08-17T17:11:53.187Z,100640.00
2022-08-17T17:17:16.376Z,100642.47
2022-08-17T17:22:39.619Z,100652.81
2022-08-17T17:28:15.217Z,100652.81
2022-08-17T17:39:48.900Z,100650.22
2022-08-17T17:45:24.010Z,100648.97
2022-08-17T17:51:54.764Z,100646.94
2022-08-17T17:57:37.146Z,100659.34
2022-08-17T18:02:54.831Z,100671.31
2022-08-17T18:08:46.675Z,100682.66
2022-08-17T18:14:46.201Z,100689.75
2022-08-17T18:19:53.048Z,100719.31
2022-08-17T18:25:00.573Z,100736.16
2022-08-17T18:30:23.409Z,100729.41
2022-08-17T18:35:46.387Z,100730.66
2022-08-17T18:41:23.838Z,100722.69
2022-08-17T18:46:36.182Z,100746.34
2022-08-17T18:51:43.626Z,100766.69
2022-08-17T18:57:02.649Z,100744.16
2022-08-17T19:02:38.773Z,100765.28
2022-08-17T19:07:51.496Z,100784.53
2022-08-17T19:13:49.968Z,100731.25
2022-08-17T19:19:18.067Z,100761.88
2022-08-17T19:24:30.267Z,100825.88
2022-08-17T19:29:54.810Z,100830.84
2022-08-17T19:35:19.465Z,100870.56
2022-08-17T19:41:01.319Z,100900.19
2022-08-17T19:46:26.123Z,100874.16
2022-08-17T19:58:09.495Z,100905.19
2022-08-17T20:09:17.745Z,100786.25
2022-08-17T20:15:05.317Z,100825.94
2022-08-17T20:20:54.684Z,100958.81
2022-08-17T20:26:19.293Z,100929.63
2022-08-17T20:32:06.736Z,100892.66
2022-08-17T20:37:21.891Z,100862.16
2022-08-17T20:42:34.087Z,100910.38
2022-08-17T20:48:22.111Z,100918.13
2022-08-17T20:53:55.231Z,100882.69
2022-08-17T20:59:06.861Z,100904.25
2022-08-17T21:04:52.367Z,100911.19
2022-08-17T21:10:19.742Z,100900.97
2022-08-17T21:16:12.992Z,100900.28
2022-08-17T21:21:52.264Z,100884.19
2022-08-17T21:27:26.111Z,100903.69
2022-08-17T21:32:44.982Z,100911.75
2022-08-17T21:38:07.242Z,100898.78
2022-08-17T21:43:32.172Z,100906.56
2022-08-17T21:48:48.573Z,100890.56
2022-08-17T21:54:06.226Z,100894.50
2022-08-17T22:00:09.186Z,100896.84
2022-08-17T22:05:14.578Z,100900.66
2022-08-17T22:10:41.477Z,100916.06
2022-08-17T22:15:54.382Z,100906.81
2022-08-17T22:21:12.739Z,100910.75
2022-08-17T22:26:28.782Z,100906.91
2022-08-17T22:32:01.322Z,100896.38
2022-08-17T22:37:51.145Z,100910.50
2022-08-17T22:42:58.279Z,100916.06
2022-08-17T22:48:08.170Z,100939.00
2022-08-17T22:53:42.932Z,100959.16
2022-08-17T22:59:32.623Z,100981.66
2022-08-17T23:04:47.380Z,101009.00
2022-08-17T23:09:54.918Z,101034.00
2022-08-17T23:15:07.424Z,101060.19
2022-08-17T23:20:23.437Z,101026.47
2022-08-17T23:25:37.411Z,101049.06
2022-08-17T23:30:45.418Z,101049.50
2022-08-17T23:35:49.409Z,101046.50
2022-08-17T23:40:54.469Z,101035.59
2022-08-17T23:46:08.190Z,101073.69
2022-08-17T23:51:17.056Z,101091.88
2022-08-17T23:56:30.834Z,101063.22
